createdAt,value
2019-01-06T00:06:06.275Z,102540.72
2019-01-06T00:08:53.576Z,102540.17
2019-01-06T00:14:16.080Z,102539.08
2019-01-06T00:17:03.388Z,102542.13
2019-01-06T00:19:50.691Z,102531.93
2019-01-06T00:22:38.005Z,102534.42
2019-01-06T00:28:14.178Z,102532.81
2019-01-06T00:33:42.115Z,102535.28
2019-01-06T00:36:29.439Z,102534.18
2019-01-06T00:39:16.736Z,102543.84
2019-01-06T00:42:04.053Z,102552.09
2019-01-06T00:44:51.356Z,102560.66
2019-01-06T00:50:17.970Z,102567.81
2019-01-06T00:53:05.290Z,102565.06
2019-01-06T00:58:41.472Z,102567.24
2019-01-06T01:01:28.772Z,102569.44
2019-01-06T01:04:16.095Z,102570.02
2019-01-06T01:07:03.403Z,102573.87
2019-01-06T01:13:04.845Z,102574.70
2019-01-06T01:15:52.152Z,102577.16
2019-01-06T01:18:39.476Z,102576.08
2019-01-06T01:24:15.656Z,102581.30
2019-01-06T01:27:02.953Z,102585.14
2019-01-06T01:29:50.262Z,102583.23
2019-01-06T01:32:37.567Z,102588.73
2019-01-06T01:37:59.837Z,102584.88
2019-01-06T01:40:47.157Z,102592.87
2019-01-06T01:43:34.462Z,102590.39
2019-01-06T01:46:21.765Z,102591.75
2019-01-06T01:49:09.083Z,102592.87
2019-01-06T01:54:45.263Z,102591.77
2019-01-06T01:57:32.567Z,102598.93
2019-01-06T02:02:54.878Z,102603.86
2019-01-06T02:05:42.185Z,102609.66
2019-01-06T02:11:18.372Z,102616.81
2019-01-06T02:16:54.548Z,102619.84
2019-01-06T02:24:56.567Z,102616.81
2019-01-06T02:27:43.867Z,102621.48
2019-01-06T02:30:31.185Z,102608.00
2019-01-06T02:33:18.480Z,102611.84
2019-01-06T02:36:05.793Z,102615.97
2019-01-06T02:38:53.090Z,102605.78
2019-01-06T02:44:19.487Z,102620.95
2019-01-06T02:47:06.799Z,102625.33
2019-01-06T02:49:54.105Z,102627.27
2019-01-06T02:52:41.410Z,102625.33
2019-01-06T02:55:28.709Z,102626.14
2019-01-06T03:00:51.190Z,102615.93
2019-01-06T03:03:38.505Z,102618.70
2019-01-06T03:09:14.686Z,102612.63
2019-01-06T03:12:02.001Z,102622.54
2019-01-06T03:14:49.296Z,102615.10
2019-01-06T03:17:36.606Z,102627.75
2019-01-06T03:23:38.323Z,102621.34
2019-01-06T03:26:25.583Z,102624.92
2019-01-06T03:34:23.533Z,102628.75
2019-01-06T03:37:10.835Z,102627.38
2019-01-06T03:39:58.141Z,102631.50
2019-01-06T03:42:45.448Z,102627.95
2019-01-06T03:45:32.749Z,102624.89
2019-01-06T03:48:20.051Z,102626.56
2019-01-06T03:51:07.354Z,102618.58
2019-01-06T03:53:54.673Z,102624.08
2019-01-06T03:59:30.857Z,102623.81
2019-01-06T04:07:41.956Z,102620.21
2019-01-06T04:10:29.271Z,102616.91
2019-01-06T04:13:16.589Z,102620.17
2019-01-06T04:16:03.914Z,102623.44
2019-01-06T04:18:51.211Z,102621.55
2019-01-06T04:21:38.529Z,102625.66
2019-01-06T04:24:25.822Z,102620.43
2019-01-06T04:27:13.152Z,102627.33
2019-01-06T04:32:49.358Z,102614.15
2019-01-06T04:35:36.664Z,102620.47
2019-01-06T04:38:23.983Z,102617.98
2019-01-06T04:41:11.306Z,102615.50
2019-01-06T04:46:47.483Z,102611.39
2019-01-06T04:49:34.794Z,102613.59
2019-01-06T04:52:22.106Z,102611.14
2019-01-06T04:55:09.413Z,102608.94
2019-01-06T04:57:56.722Z,102614.43
2019-01-06T05:00:44.027Z,102619.11
2019-01-06T05:03:31.359Z,102620.25
2019-01-06T05:06:18.657Z,102616.13
2019-01-06T05:09:05.972Z,102616.92
2019-01-06T05:14:42.154Z,102623.52
2019-01-06T05:17:29.468Z,102621.33
2019-01-06T05:20:16.784Z,102617.20
2019-01-06T05:25:43.483Z,102629.32
2019-01-06T05:28:30.803Z,102638.39
2019-01-06T05:31:18.092Z,102636.48
2019-01-06T05:36:40.881Z,102640.63
2019-01-06T05:39:28.186Z,102638.97
2019-01-06T05:42:15.481Z,102636.48
2019-01-06T05:45:02.805Z,102641.18
2019-01-06T05:47:50.141Z,102637.86
2019-01-06T05:50:37.424Z,102644.23
2019-01-06T05:53:24.719Z,102639.80
2019-01-06T05:56:12.031Z,102641.48
2019-01-06T05:58:59.343Z,102643.08
2019-01-06T06:12:24.723Z,102646.98
2019-01-06T06:17:47.395Z,102649.21
2019-01-06T06:20:55.708Z,102643.13
2019-01-06T06:29:07.228Z,102651.13
2019-01-06T06:31:54.532Z,102654.17
2019-01-06T06:34:41.859Z,102659.68
2019-01-06T06:40:18.031Z,102667.64
2019-01-06T06:43:05.336Z,102663.25
2019-01-06T06:45:52.646Z,102665.46
2019-01-06T06:48:39.954Z,102664.09
2019-01-06T06:51:27.266Z,102667.39
2019-01-06T06:54:14.572Z,102669.58
2019-01-06T06:57:22.880Z,102668.20
2019-01-06T07:00:31.505Z,102669.88
2019-01-06T07:06:20.258Z,102674.54
2019-01-06T07:09:07.557Z,102685.01
2019-01-06T07:11:54.881Z,102684.47
2019-01-06T07:14:42.184Z,102683.91
2019-01-06T07:18:08.310Z,102689.95
2019-01-06T07:20:55.614Z,102690.23
2019-01-06T07:23:42.936Z,102695.73
2019-01-06T07:26:30.258Z,102697.37
2019-01-06T07:29:17.578Z,102709.78
2019-01-06T07:32:04.902Z,102715.01
2019-01-06T07:34:52.201Z,102719.14
2019-01-06T07:37:39.520Z,102719.44
2019-01-06T07:40:26.826Z,102725.20
2019-01-06T07:43:14.142Z,102727.44
2019-01-06T07:46:02.732Z,102723.84
2019-01-06T07:48:50.484Z,102730.43
2019-01-06T07:51:37.784Z,102737.89
2019-01-06T07:54:25.109Z,102730.43
2019-01-06T07:57:12.407Z,102732.38
2019-01-06T07:59:59.729Z,102743.66
2019-01-06T08:02:47.060Z,102745.84
2019-01-06T08:05:34.365Z,102745.84
2019-01-06T08:13:35.992Z,102760.15
2019-01-06T08:16:23.299Z,102760.98
2019-01-06T08:19:10.609Z,102758.80
2019-01-06T08:21:57.921Z,102765.67
2019-01-06T08:24:45.234Z,102763.76
2019-01-06T08:27:32.540Z,102768.45
2019-01-06T08:30:19.852Z,102763.78
2019-01-06T08:33:07.159Z,102772.03
2019-01-06T08:35:54.469Z,102772.86
2019-01-06T08:38:41.787Z,102775.08
2019-01-06T08:41:29.102Z,102771.78
2019-01-06T08:44:16.424Z,102773.97
2019-01-06T08:47:03.727Z,102770.97
2019-01-06T08:49:51.049Z,102769.59
2019-01-06T08:52:38.351Z,102766.84
2019-01-06T08:55:25.671Z,102762.41
2019-01-06T08:58:12.970Z,102763.69
2019-01-06T09:01:00.287Z,102766.94
2019-01-06T09:03:47.590Z,102774.09
2019-01-06T09:06:34.908Z,102772.95
2019-01-06T09:09:22.210Z,102769.94
2019-01-06T09:12:09.531Z,102775.19
2019-01-06T09:14:56.890Z,102777.42
2019-01-06T09:23:11.608Z,102787.95
2019-01-06T09:25:58.932Z,102788.52
2019-01-06T09:28:46.231Z,102793.20
2019-01-06T09:34:08.955Z,102790.47
2019-01-06T09:36:56.275Z,102795.44
2019-01-06T09:39:43.579Z,102800.94
2019-01-06T09:42:30.899Z,102800.95
2019-01-06T09:45:18.203Z,102793.80
2019-01-06T09:50:44.605Z,102794.08
2019-01-06T09:53:31.851Z,102793.20
2019-01-06T09:56:19.142Z,102794.58
2019-01-06T09:59:06.460Z,102794.06
2019-01-06T10:04:42.645Z,102794.60
2019-01-06T10:07:29.950Z,102797.08
2019-01-06T10:10:17.250Z,102789.94
2019-01-06T10:13:04.557Z,102795.42
2019-01-06T10:15:51.855Z,102798.50
2019-01-06T10:21:18.306Z,102806.25
2019-01-06T10:29:15.631Z,102802.42
2019-01-06T10:32:02.918Z,102800.79
2019-01-06T10:34:50.231Z,102798.31
2019-01-06T10:37:37.534Z,102795.84
2019-01-06T10:43:25.791Z,102779.59
2019-01-06T10:49:01.977Z,102783.71
2019-01-06T10:51:49.276Z,102778.77
2019-01-06T10:54:36.590Z,102781.52
2019-01-06T10:57:23.896Z,102779.34
2019-01-06T11:02:46.447Z,102776.58
2019-01-06T11:05:33.756Z,102781.53
2019-01-06T11:13:45.279Z,102776.56
2019-01-06T11:16:32.599Z,102776.83
2019-01-06T11:19:20.190Z,102774.63
2019-01-06T11:24:56.366Z,102781.81
2019-01-06T11:27:43.671Z,102777.68
2019-01-06T11:33:06.134Z,102780.44
2019-01-06T11:38:32.598Z,102787.62
2019-01-06T11:41:19.912Z,102779.08
2019-01-06T11:46:56.092Z,102774.12
2019-01-06T11:49:52.115Z,102776.06
2019-01-06T11:52:39.426Z,102777.72
2019-01-06T11:55:26.725Z,102774.14
2019-01-06T11:58:14.051Z,102775.53
2019-01-06T12:01:01.428Z,102773.62
2019-01-06T12:03:48.716Z,102770.02
2019-01-06T12:06:36.027Z,102769.75
2019-01-06T12:12:17.448Z,102770.86
2019-01-06T12:17:53.626Z,102767.28
2019-01-06T12:20:40.933Z,102767.02
2019-01-06T12:23:28.247Z,102774.47
2019-01-06T12:29:04.437Z,102773.36
2019-01-06T12:31:51.754Z,102767.31
2019-01-06T12:34:39.069Z,102766.20
2019-01-06T12:37:26.375Z,102763.44
2019-01-06T12:40:13.681Z,102755.17
2019-01-06T12:43:01.001Z,102760.69
2019-01-06T12:45:48.294Z,102762.36
2019-01-06T12:48:35.615Z,102759.04
2019-01-06T12:54:11.793Z,102753.28
2019-01-06T12:56:59.093Z,102751.91
2019-01-06T12:59:46.412Z,102757.14
2019-01-06T13:05:22.590Z,102757.97
2019-01-06T13:08:09.900Z,102760.19
2019-01-06T13:10:57.205Z,102761.27
2019-01-06T13:13:44.518Z,102763.48
2019-01-06T13:19:20.699Z,102756.31
2019-01-06T13:22:08.003Z,102757.15
2019-01-06T13:24:55.315Z,102763.50
2019-01-06T13:27:42.616Z,102762.92
2019-01-06T13:33:30.458Z,102763.78
2019-01-06T13:36:17.771Z,102770.95
2019-01-06T13:39:05.088Z,102776.19
2019-01-06T13:41:52.389Z,102775.91
2019-01-06T13:49:54.354Z,102771.77
2019-01-06T13:52:41.654Z,102773.98
2019-01-06T13:55:28.967Z,102768.18
2019-01-06T13:58:16.262Z,102767.10
2019-01-06T14:08:53.531Z,102785.00
2019-01-06T14:11:40.843Z,102780.88
2019-01-06T14:14:28.174Z,102786.13
2019-01-06T14:25:18.940Z,102783.09
2019-01-06T14:30:53.076Z,102790.25
2019-01-06T14:33:40.385Z,102781.55
2019-01-06T14:36:27.720Z,102774.86
2019-01-06T14:39:15.020Z,102774.30
2019-01-06T14:42:02.346Z,102777.00
2019-01-06T14:44:49.658Z,102780.91
2019-01-06T14:47:36.981Z,102775.95
2019-01-06T14:53:24.878Z,102783.89
2019-01-06T14:56:12.192Z,102788.30
2019-01-06T14:58:59.500Z,102788.53
2019-01-06T15:01:46.819Z,102794.81
2019-01-06T15:04:34.124Z,102789.15
2019-01-06T15:07:21.455Z,102788.16
2019-01-06T15:10:08.746Z,102788.75
2019-01-06T15:12:56.054Z,102784.12
2019-01-06T15:15:43.368Z,102786.63
2019-01-06T15:21:06.022Z,102788.34
2019-01-06T15:23:53.340Z,102799.63
2019-01-06T15:26:40.641Z,102798.27
2019-01-06T15:29:27.963Z,102794.40
2019-01-06T15:32:15.282Z,102796.60
2019-01-06T15:35:02.589Z,102796.06
2019-01-06T15:37:49.895Z,102797.72
2019-01-06T15:40:37.201Z,102798.53
2019-01-06T15:43:24.509Z,102798.56
2019-01-06T15:46:11.807Z,102796.61
2019-01-06T15:48:59.126Z,102794.41
2019-01-06T15:54:35.298Z,102796.33
2019-01-06T15:57:22.602Z,102796.62
2019-01-06T16:00:09.981Z,102796.88
2019-01-06T16:02:57.498Z,102793.30
2019-01-06T16:05:44.803Z,102793.57
2019-01-06T16:08:32.109Z,102792.18
2019-01-06T16:11:19.415Z,102797.97
2019-01-06T16:14:06.724Z,102803.20
2019-01-06T16:19:42.902Z,102806.53
2019-01-06T16:22:30.207Z,102810.66
2019-01-06T16:25:17.515Z,102818.92
2019-01-06T16:30:53.690Z,102821.42
2019-01-06T16:33:40.992Z,102828.59
2019-01-06T16:36:28.297Z,102824.98
2019-01-06T16:39:15.614Z,102829.67
2019-01-06T16:42:02.918Z,102820.28
2019-01-06T16:47:29.227Z,102822.22
2019-01-06T16:50:16.535Z,102812.28
2019-01-06T16:53:03.829Z,102820.57
2019-01-06T16:55:51.213Z,102823.05
2019-01-06T17:01:27.327Z,102822.25
2019-01-06T17:07:03.518Z,102828.59
2019-01-06T17:09:50.813Z,102825.00
2019-01-06T17:12:38.128Z,102823.91
2019-01-06T17:20:35.820Z,102824.16
2019-01-06T17:23:23.127Z,102822.23
2019-01-06T17:26:10.459Z,102821.41
2019-01-06T17:28:57.749Z,102822.80
2019-01-06T17:34:24.049Z,102831.89
2019-01-06T17:37:11.371Z,102833.80
2019-01-06T17:39:58.672Z,102834.63
2019-01-06T17:42:45.985Z,102836.02
2019-01-06T17:45:33.283Z,102836.00
2019-01-06T17:48:20.609Z,102841.22
2019-01-06T17:51:07.902Z,102843.17
2019-01-06T17:53:55.254Z,102843.98
2019-01-06T17:56:42.563Z,102837.37
2019-01-06T17:59:29.864Z,102843.44
2019-01-06T18:04:56.433Z,102848.39
2019-01-06T18:10:22.043Z,102848.92
2019-01-06T18:13:08.207Z,102845.62
2019-01-06T18:18:44.391Z,102851.95
2019-01-06T18:21:31.770Z,102847.55
2019-01-06T18:24:19.083Z,102848.05
2019-01-06T18:27:06.387Z,102846.94
2019-01-06T18:29:53.694Z,102845.81
2019-01-06T18:32:41.030Z,102849.69
2019-01-06T18:35:28.327Z,102848.30
2019-01-06T18:38:15.643Z,102845.27
2019-01-06T18:46:31.124Z,102845.03
2019-01-06T18:52:16.977Z,102849.45
2019-01-06T18:55:04.288Z,102847.80
2019-01-06T18:57:51.594Z,102857.47
2019-01-06T19:00:38.918Z,102851.15
2019-01-06T19:03:26.215Z,102849.75
2019-01-06T19:13:58.968Z,102837.89
2019-01-06T19:16:46.279Z,102843.66
2019-01-06T19:22:22.453Z,102838.14
2019-01-06T19:25:09.767Z,102843.39
2019-01-06T19:27:57.065Z,102849.17
2019-01-06T19:33:23.508Z,102841.68
2019-01-06T19:36:10.827Z,102842.50
2019-01-06T19:38:58.123Z,102843.30
2019-01-06T19:47:00.142Z,102842.77
2019-01-06T19:49:47.419Z,102839.17
2019-01-06T19:57:49.104Z,102840.27
2019-01-06T20:00:36.413Z,102840.56
2019-01-06T20:03:23.720Z,102832.85
2019-01-06T20:06:11.116Z,102838.08
2019-01-06T20:08:58.359Z,102829.84
2019-01-06T20:17:27.615Z,102830.13
2019-01-06T20:20:14.929Z,102832.34
2019-01-06T20:31:09.249Z,102831.22
2019-01-06T20:33:56.572Z,102830.64
2019-01-06T20:39:32.756Z,102832.34
2019-01-06T20:42:20.056Z,102834.53
2019-01-06T20:45:07.403Z,102837.84
2019-01-06T20:47:54.692Z,102837.59
2019-01-06T20:50:41.998Z,102840.89
2019-01-06T20:56:18.184Z,102835.12
2019-01-06T20:59:05.479Z,102831.25
2019-01-06T21:04:28.202Z,102836.50
2019-01-06T21:10:04.391Z,102835.38
2019-01-06T21:12:51.694Z,102834.01
2019-01-06T21:18:14.232Z,102828.77
2019-01-06T21:21:01.539Z,102832.92
2019-01-06T21:29:16.888Z,102839.56
2019-01-06T21:32:04.206Z,102837.35
2019-01-06T21:34:51.572Z,102843.16
2019-01-06T21:37:39.067Z,102842.86
2019-01-06T21:43:27.138Z,102841.19
2019-01-06T21:46:14.452Z,102845.08
2019-01-06T21:57:01.027Z,102840.93
2019-01-06T22:05:12.503Z,102843.95
2019-01-06T22:10:38.932Z,102849.73
2019-01-06T22:18:40.730Z,102845.88
2019-01-06T22:24:16.919Z,102841.72
2019-01-06T22:27:04.223Z,102847.79
2019-01-06T22:29:51.537Z,102844.23
2019-01-06T22:32:38.853Z,102837.88
2019-01-06T22:38:15.040Z,102839.80
2019-01-06T22:41:02.412Z,102842.83
2019-01-06T22:43:49.721Z,102844.19
2019-01-06T22:46:37.029Z,102844.14
2019-01-06T22:49:24.337Z,102840.56
2019-01-06T22:52:11.640Z,102835.86
2019-01-06T22:54:58.945Z,102832.28
2019-01-06T22:57:46.247Z,102830.64
2019-01-06T23:00:54.556Z,102829.24
2019-01-06T23:03:41.894Z,102832.55
2019-01-06T23:06:29.195Z,102834.45
2019-01-06T23:09:16.518Z,102827.02
2019-01-06T23:12:05.578Z,102825.66
2019-01-06T23:14:52.846Z,102832.84
2019-01-06T23:17:40.143Z,102830.66
2019-01-06T23:20:27.464Z,102826.77
2019-01-06T23:23:14.765Z,102836.16
2019-01-06T23:26:02.236Z,102829.55
2019-01-06T23:28:49.455Z,102830.64
2019-01-06T23:34:12.167Z,102827.88
2019-01-06T23:36:59.473Z,102824.03
2019-01-06T23:39:46.810Z,102824.59
2019-01-06T23:42:34.110Z,102826.51
2019-01-06T23:45:21.433Z,102831.75
2019-01-06T23:48:08.729Z,102832.56
2019-01-06T23:50:56.047Z,102835.87
2019-01-06T23:56:32.251Z,102839.70
2019-01-06T23:59:19.554Z,102833.89
